createdAt,value
2018-06-09T00:00:50.380Z,999.08
2018-06-09T00:01:50.373Z,999.06
2018-06-09T00:02:50.385Z,999.04
2018-06-09T00:03:50.384Z,999.05
2018-06-09T00:04:50.389Z,999.06
2018-06-09T00:05:50.426Z,999.02
2018-06-09T00:06:50.393Z,999.02
2018-06-09T00:07:50.402Z,999.01
2018-06-09T00:08:50.420Z,999.04
2018-06-09T00:09:50.450Z,999.05
2018-06-09T00:10:50.440Z,999.04
2018-06-09T00:11:50.424Z,999.03
2018-06-09T00:12:50.435Z,999.01
2018-06-09T00:13:50.429Z,999.04
2018-06-09T00:14:50.452Z,999.03
2018-06-09T00:15:50.447Z,999.04
2018-06-09T00:16:50.448Z,999.01
2018-06-09T00:17:50.446Z,998.99
2018-06-09T00:18:50.474Z,998.96
2018-06-09T00:19:50.465Z,998.95
2018-06-09T00:20:50.469Z,998.93
2018-06-09T00:21:50.496Z,998.94
2018-06-09T00:22:50.501Z,998.95
2018-06-09T00:23:50.484Z,998.97
2018-06-09T00:26:20.595Z,998.97
2018-06-09T00:28:32.572Z,998.91
2018-06-09T00:29:32.585Z,998.90
2018-06-09T03:22:44.438Z,999.19
2018-06-09T03:25:14.514Z,999.20
2018-06-09T03:26:05.445Z,999.19
2018-06-09T03:27:05.451Z,999.21
2018-06-09T03:29:26.482Z,999.25
2018-06-09T03:30:26.477Z,999.29
2018-06-09T03:31:26.465Z,999.28
2018-06-09T03:32:26.491Z,999.33
2018-06-09T03:33:26.530Z,999.33
2018-06-09T03:34:26.486Z,999.35
2018-06-09T03:35:26.478Z,999.35
2018-06-09T03:36:26.484Z,999.37
2018-06-09T03:37:26.483Z,999.33
2018-06-09T03:38:26.492Z,999.33
2018-06-09T03:39:26.497Z,999.29
2018-06-09T03:40:26.501Z,999.29
2018-06-09T03:41:26.507Z,999.32
2018-06-09T03:42:26.502Z,999.29
2018-06-09T03:43:26.583Z,999.34
2018-06-09T03:44:26.513Z,999.37
2018-06-09T03:45:34.202Z,999.36
2018-06-09T03:47:20.052Z,999.44
2018-06-09T03:48:19.968Z,999.46
2018-06-09T03:49:19.958Z,999.46
2018-06-09T03:50:19.960Z,999.44
2018-06-09T03:51:20.036Z,999.47
2018-06-09T03:52:19.948Z,999.49
2018-06-09T03:53:19.950Z,999.48
2018-06-09T03:54:20.019Z,999.44
2018-06-09T03:55:19.963Z,999.50
2018-06-09T03:56:19.975Z,999.51
2018-06-09T03:57:19.995Z,999.46
2018-06-09T03:58:19.971Z,999.47
2018-06-09T03:59:19.974Z,999.49
2018-06-09T04:00:19.980Z,999.48
2018-06-09T04:01:19.985Z,999.52
2018-06-09T04:02:20.004Z,999.50
2018-06-09T04:03:19.996Z,999.51
2018-06-09T04:04:19.997Z,999.55
2018-06-09T04:05:20.007Z,999.56
2018-06-09T04:06:20.008Z,999.59
2018-06-09T04:07:20.015Z,999.50
2018-06-09T04:08:20.023Z,999.56
2018-06-09T04:09:20.029Z,999.58
2018-06-09T04:10:20.031Z,999.56
2018-06-09T04:11:20.034Z,999.60
2018-06-09T04:12:20.040Z,999.60
2018-06-09T04:13:20.043Z,999.60
2018-06-09T04:14:20.052Z,999.60
2018-06-09T04:15:20.054Z,999.60
2018-06-09T04:16:20.071Z,999.58
2018-06-09T04:17:20.062Z,999.58
2018-06-09T04:18:28.728Z,999.61
2018-06-09T04:20:13.484Z,999.63
2018-06-09T04:21:13.475Z,999.64
2018-06-09T04:22:13.485Z,999.67
2018-06-09T04:23:13.479Z,999.67
2018-06-09T04:24:13.493Z,999.67
2018-06-09T04:25:13.493Z,999.66
2018-06-09T04:26:13.497Z,999.70
2018-06-09T04:27:13.500Z,999.72
2018-06-09T04:28:13.504Z,999.70
2018-06-09T04:29:13.512Z,999.69
2018-06-09T04:30:13.517Z,999.68
2018-06-09T04:31:13.526Z,999.64
2018-06-09T04:32:13.530Z,999.65
2018-06-09T04:33:13.532Z,999.64
2018-06-09T04:34:13.541Z,999.64
2018-06-09T04:35:13.542Z,999.63
2018-06-09T04:36:13.547Z,999.68
2018-06-09T04:37:13.550Z,999.68
2018-06-09T04:38:13.558Z,999.70
2018-06-09T04:39:13.563Z,999.71
2018-06-09T04:40:13.575Z,999.72
2018-06-09T04:41:13.581Z,999.73
2018-06-09T04:42:13.582Z,999.76
2018-06-09T04:43:13.584Z,999.81
2018-06-09T04:44:13.596Z,999.78
2018-06-09T04:45:13.600Z,999.80
2018-06-09T04:46:13.607Z,999.76
2018-06-09T04:47:13.610Z,999.76
2018-06-09T04:48:13.621Z,999.76
2018-06-09T04:49:13.634Z,999.71
2018-06-09T04:50:13.629Z,999.73
2018-06-09T04:51:13.643Z,999.77
2018-06-09T04:52:13.690Z,999.79
2018-06-09T04:53:13.653Z,999.80
2018-06-09T04:54:13.659Z,999.80
2018-06-09T04:55:13.666Z,999.78
2018-06-09T04:56:13.674Z,999.77
2018-06-09T04:57:13.680Z,999.81
2018-06-09T04:58:13.693Z,999.82
2018-06-09T04:59:13.721Z,999.82
2018-06-09T05:00:13.706Z,999.85
2018-06-09T05:01:13.716Z,999.84
2018-06-09T05:02:13.727Z,999.81
2018-06-09T05:03:13.728Z,999.83
2018-06-09T05:04:13.744Z,999.87
2018-06-09T05:05:13.746Z,999.86
2018-06-09T05:06:13.757Z,999.86
2018-06-09T05:07:13.784Z,999.89
2018-06-09T05:08:13.773Z,999.89
2018-06-09T05:09:13.781Z,999.91
2018-06-09T05:10:13.793Z,999.96
2018-06-09T05:11:13.803Z,999.86
2018-06-09T05:12:13.811Z,999.94
2018-06-09T05:13:13.823Z,999.96
2018-06-09T05:14:13.836Z,999.97
2018-06-09T05:15:13.845Z,999.98
2018-06-09T05:16:13.860Z,1000.00
2018-06-09T05:17:13.870Z,1000.01
2018-06-09T05:18:13.875Z,999.94
2018-06-09T05:19:13.896Z,999.97
2018-06-09T05:20:13.905Z,999.93
2018-06-09T05:21:13.913Z,999.89
2018-06-09T05:22:13.927Z,999.93
2018-06-09T05:23:13.938Z,999.89
2018-06-09T05:24:13.949Z,999.90
2018-06-09T05:25:14.000Z,999.90
2018-06-09T05:26:13.973Z,999.98
2018-06-09T05:27:13.981Z,999.95
2018-06-09T05:28:14.017Z,999.98
2018-06-09T05:29:14.006Z,999.98
2018-06-09T05:30:14.013Z,999.85
2018-06-09T05:31:14.029Z,1000.01
2018-06-09T05:32:14.045Z,1000.01
2018-06-09T05:33:14.051Z,1000.03
2018-06-09T05:34:14.061Z,1000.05
2018-06-09T05:35:14.066Z,1000.09
2018-06-09T05:36:14.081Z,1000.10
2018-06-09T05:37:14.085Z,1000.10
2018-06-09T05:38:14.103Z,1000.05
2018-06-09T05:39:14.108Z,1000.16
2018-06-09T05:40:14.128Z,1000.13
2018-06-09T05:41:14.130Z,1000.14
2018-06-09T05:42:14.146Z,1000.15
2018-06-09T05:43:14.151Z,1000.14
2018-06-09T05:44:14.162Z,1000.15
2018-06-09T05:45:14.171Z,1000.15
2018-06-09T05:46:14.182Z,1000.13
2018-06-09T05:47:14.189Z,1000.09
2018-06-09T05:48:14.201Z,1000.11
2018-06-09T05:49:14.204Z,1000.12
2018-06-09T05:50:14.235Z,1000.10
2018-06-09T05:51:14.235Z,1000.08
2018-06-09T05:52:14.234Z,1000.10
2018-06-09T05:53:14.245Z,1000.08
2018-06-09T05:54:14.258Z,1000.15
2018-06-09T05:55:14.266Z,1000.09
2018-06-09T05:56:14.271Z,1000.10
2018-06-09T05:57:14.287Z,1000.10
2018-06-09T05:58:14.313Z,1000.10
2018-06-09T05:59:14.298Z,1000.11
2018-06-09T06:00:14.318Z,1000.13
2018-06-09T06:01:14.314Z,1000.10
2018-06-09T06:02:14.325Z,1000.14
2018-06-09T06:03:14.330Z,1000.11
2018-06-09T06:04:14.342Z,1000.15
2018-06-09T06:05:14.360Z,1000.14
2018-06-09T06:06:14.361Z,1000.14
2018-06-09T06:07:14.410Z,1000.14
2018-06-09T06:08:14.370Z,1000.16
2018-06-09T06:09:14.383Z,1000.18
2018-06-09T06:10:14.396Z,1000.21
2018-06-09T06:11:14.407Z,1000.24
2018-06-09T06:12:14.407Z,1000.26
2018-06-09T06:13:14.416Z,1000.29
2018-06-09T06:14:14.449Z,1000.28
2018-06-09T06:15:14.430Z,1000.24
2018-06-09T06:16:14.438Z,1000.22
2018-06-09T06:17:14.455Z,1000.24
2018-06-09T06:18:14.453Z,1000.23
2018-06-09T06:19:23.301Z,1000.23
2018-06-09T06:21:07.889Z,1000.22
2018-06-09T06:22:07.893Z,1000.20
2018-06-09T06:23:07.889Z,1000.21
2018-06-09T06:24:07.901Z,1000.19
2018-06-09T06:25:07.905Z,1000.16
2018-06-09T06:26:07.922Z,1000.18
2018-06-09T06:27:07.925Z,1000.19
2018-06-09T06:28:07.933Z,1000.17
2018-06-09T06:29:07.943Z,1000.22
2018-06-09T06:30:07.941Z,1000.18
2018-06-09T06:31:07.957Z,1000.26
2018-06-09T06:32:07.976Z,1000.24
2018-06-09T06:33:07.972Z,1000.22
2018-06-09T06:34:07.988Z,1000.26
2018-06-09T06:35:07.994Z,1000.28
2018-06-09T06:36:08.000Z,1000.26
2018-06-09T06:37:08.009Z,1000.30
2018-06-09T06:38:08.027Z,1000.28
2018-06-09T06:39:08.028Z,1000.27
2018-06-09T06:40:08.032Z,1000.28
2018-06-09T06:41:08.047Z,1000.30
2018-06-09T06:42:08.055Z,1000.31
2018-06-09T06:43:08.062Z,1000.31
2018-06-09T06:44:08.066Z,1000.33
2018-06-09T06:45:08.076Z,1000.33
2018-06-09T06:46:08.087Z,1000.36
2018-06-09T06:47:08.109Z,1000.36
2018-06-09T06:48:08.118Z,1000.35
2018-06-09T06:49:08.111Z,1000.32
2018-06-09T06:50:08.123Z,1000.35
2018-06-09T06:51:08.134Z,1000.34
2018-06-09T06:52:08.141Z,1000.32
2018-06-09T06:53:08.146Z,1000.31
2018-06-09T06:54:08.156Z,1000.30
2018-06-09T06:55:08.161Z,1000.27
2018-06-09T06:56:08.176Z,1000.25
2018-06-09T06:57:08.193Z,1000.31
2018-06-09T06:58:08.200Z,1000.25
2018-06-09T06:59:08.198Z,1000.27
2018-06-09T07:00:08.203Z,1000.25
2018-06-09T07:01:08.211Z,1000.25
2018-06-09T07:02:16.891Z,1000.27
2018-06-09T07:04:01.699Z,1000.25
2018-06-09T07:05:01.673Z,1000.27
2018-06-09T07:06:01.693Z,1000.21
2018-06-09T07:07:01.695Z,1000.22
2018-06-09T07:08:01.723Z,1000.21
2018-06-09T07:09:01.708Z,1000.22
2018-06-09T07:10:01.716Z,1000.18
2018-06-09T07:11:01.721Z,1000.21
2018-06-09T07:12:01.741Z,1000.20
2018-06-09T07:13:01.746Z,1000.27
2018-06-09T07:14:01.754Z,1000.24
2018-06-09T07:15:01.775Z,1000.29
2018-06-09T07:16:01.778Z,1000.29
2018-06-09T07:17:01.784Z,1000.34
2018-06-09T07:18:01.810Z,1000.30
2018-06-09T07:19:01.900Z,1000.31
2018-06-09T07:20:01.827Z,1000.28
2018-06-09T07:21:01.846Z,1000.30
2018-06-09T07:22:01.807Z,1000.25
2018-06-09T07:23:01.824Z,1000.27
2018-06-09T07:24:01.842Z,1000.25
2018-06-09T07:25:01.837Z,1000.29
2018-06-09T07:26:01.843Z,1000.34
2018-06-09T07:27:01.858Z,1000.29
2018-06-09T07:28:03.737Z,1000.26
2018-06-09T07:29:01.866Z,1000.34
2018-06-09T07:30:01.901Z,1000.30
2018-06-09T07:31:01.893Z,1000.31
2018-06-09T07:32:01.933Z,1000.28
2018-06-09T07:33:01.902Z,1000.27
2018-06-09T07:34:01.912Z,1000.27
2018-06-09T07:35:01.964Z,1000.27
2018-06-09T07:36:01.927Z,1000.28
2018-06-09T07:37:01.938Z,1000.28
2018-06-09T07:38:01.979Z,1000.26
2018-06-09T07:39:01.952Z,1000.28
2018-06-09T07:40:01.967Z,1000.26
2018-06-09T07:41:01.972Z,1000.23
2018-06-09T07:42:01.975Z,1000.26
2018-06-09T07:43:01.984Z,1000.24
2018-06-09T07:44:01.996Z,1000.24
2018-06-09T07:45:02.034Z,1000.24
2018-06-09T07:46:01.999Z,1000.27
2018-06-09T07:47:02.023Z,1000.24
2018-06-09T07:48:02.013Z,1000.30
2018-06-09T07:49:02.030Z,1000.29
2018-06-09T07:50:02.039Z,1000.30
2018-06-09T07:51:02.054Z,1000.26
2018-06-09T07:52:02.060Z,1000.25
2018-06-09T07:53:02.057Z,1000.20
2018-06-09T07:54:02.079Z,1000.22
2018-06-09T07:55:02.112Z,1000.20
2018-06-09T07:56:02.078Z,1000.22
2018-06-09T07:57:02.087Z,1000.19
2018-06-09T07:58:02.094Z,1000.22
2018-06-09T07:59:02.101Z,1000.27
2018-06-09T08:00:02.106Z,1000.25
2018-06-09T08:01:02.116Z,1000.27
2018-06-09T08:02:02.124Z,1000.23
2018-06-09T08:03:02.127Z,1000.27
2018-06-09T08:04:02.143Z,1000.28
2018-06-09T08:05:02.144Z,1000.21
2018-06-09T08:06:02.156Z,1000.26
2018-06-09T08:07:02.169Z,1000.25
2018-06-09T08:08:02.172Z,1000.27
2018-06-09T08:09:02.183Z,1000.27
2018-06-09T08:10:02.185Z,1000.26
2018-06-09T08:11:02.196Z,1000.24
2018-06-09T08:12:02.204Z,1000.26
2018-06-09T08:13:02.213Z,1000.26
2018-06-09T08:14:02.287Z,1000.25
2018-06-09T08:15:02.223Z,1000.26
2018-06-09T08:16:02.234Z,1000.24
2018-06-09T08:17:02.245Z,1000.25
2018-06-09T08:18:02.265Z,1000.25
2018-06-09T08:19:02.253Z,1000.24
2018-06-09T08:20:02.264Z,1000.24
2018-06-09T08:21:02.271Z,1000.22
2018-06-09T08:22:02.279Z,1000.22
2018-06-09T08:23:02.292Z,1000.24
2018-06-09T08:24:02.295Z,1000.14
2018-06-09T08:25:02.347Z,1000.16
2018-06-09T08:26:02.319Z,1000.17
2018-06-09T08:27:02.316Z,1000.20
2018-06-09T08:28:02.324Z,1000.20
2018-06-09T08:29:02.364Z,1000.20
2018-06-09T08:30:02.360Z,1000.23
2018-06-09T08:31:02.359Z,1000.21
2018-06-09T08:32:02.356Z,1000.21
2018-06-09T08:33:02.413Z,1000.20
2018-06-09T08:34:02.367Z,1000.19
2018-06-09T08:35:02.385Z,1000.17
2018-06-09T08:36:02.404Z,1000.14
2018-06-09T08:37:02.401Z,1000.12
2018-06-09T08:38:02.410Z,1000.12
2018-06-09T08:39:02.415Z,1000.13
2018-06-09T08:40:02.421Z,1000.12
2018-06-09T08:41:02.426Z,1000.14
2018-06-09T08:42:02.506Z,1000.07
2018-06-09T08:43:02.444Z,1000.10
2018-06-09T08:44:02.454Z,1000.09
2018-06-09T08:45:02.461Z,1000.04
2018-06-09T08:46:02.471Z,1000.07
2018-06-09T08:47:02.480Z,1000.07
2018-06-09T08:48:02.529Z,1000.00
2018-06-09T08:49:02.497Z,1000.03
2018-06-09T08:50:02.506Z,1000.04
2018-06-09T08:51:02.511Z,1000.02
2018-06-09T08:52:02.518Z,1000.03
2018-06-09T08:53:02.525Z,1000.04
2018-06-09T08:54:02.532Z,1000.04
2018-06-09T08:55:02.545Z,1000.01
2018-06-09T08:56:02.547Z,999.97
2018-06-09T08:57:02.559Z,999.98
2018-06-09T08:58:02.563Z,999.99
2018-06-09T08:59:02.574Z,999.95
2018-06-09T09:00:02.582Z,999.97
2018-06-09T09:01:02.583Z,1000.01
2018-06-09T09:02:02.594Z,1000.01
2018-06-09T09:03:02.610Z,1000.02
2018-06-09T09:04:02.618Z,1000.04
2018-06-09T09:05:02.615Z,1000.09
2018-06-09T09:06:11.256Z,1000.05
2018-06-09T09:07:56.050Z,1000.10
2018-06-09T09:08:56.058Z,1000.05
2018-06-09T09:09:56.054Z,1000.04
2018-06-09T09:12:26.373Z,1000.05
2018-06-09T09:14:38.359Z,1000.10
2018-06-09T09:15:38.336Z,1000.10
2018-06-09T09:16:38.350Z,1000.11
2018-06-09T09:17:38.358Z,1000.10
2018-06-09T09:18:38.361Z,1000.09
2018-06-09T09:19:38.368Z,1000.09
2018-06-09T09:20:38.367Z,1000.09
2018-06-09T09:21:38.389Z,1000.07
2018-06-09T09:22:38.395Z,1000.03
2018-06-09T09:23:38.395Z,1000.01
2018-06-09T09:24:38.409Z,1000.02
2018-06-09T09:25:38.410Z,1000.01
2018-06-09T09:26:38.420Z,999.98
2018-06-09T09:27:38.436Z,999.97
2018-06-09T09:28:38.434Z,999.99
2018-06-09T09:29:38.440Z,1000.03
2018-06-09T09:30:38.443Z,1000.04
2018-06-09T09:31:38.453Z,1000.02
2018-06-09T09:32:38.466Z,1000.03
2018-06-09T09:33:38.471Z,1000.05
2018-06-09T09:34:38.480Z,1000.04
2018-06-09T09:35:38.484Z,999.99
2018-06-09T09:36:38.492Z,999.96
2018-06-09T09:37:38.545Z,999.92
2018-06-09T09:38:38.504Z,999.93
2018-06-09T09:39:38.513Z,999.89
2018-06-09T09:40:38.523Z,999.89
2018-06-09T09:41:38.530Z,999.92
2018-06-09T09:42:38.535Z,999.97
2018-06-09T09:43:38.630Z,999.95
2018-06-09T09:44:38.555Z,999.98
2018-06-09T09:45:38.580Z,999.93
2018-06-09T09:46:38.571Z,999.96
2018-06-09T09:47:38.573Z,999.98
2018-06-09T09:48:38.585Z,999.94
2018-06-09T09:49:38.603Z,999.91
2018-06-09T09:50:38.605Z,999.93
2018-06-09T09:51:38.610Z,999.94
2018-06-09T09:52:38.617Z,999.94
2018-06-09T09:53:38.627Z,999.91
2018-06-09T09:54:38.642Z,999.92
2018-06-09T09:55:38.647Z,999.91
2018-06-09T09:56:38.650Z,999.89
2018-06-09T09:57:38.661Z,999.83
2018-06-09T09:58:38.670Z,999.88
2018-06-09T09:59:38.673Z,999.83
2018-06-09T10:00:38.675Z,999.87
2018-06-09T10:01:38.686Z,999.84
2018-06-09T10:02:38.695Z,999.87
2018-06-09T10:03:38.696Z,999.90
2018-06-09T10:04:38.733Z,999.88
2018-06-09T10:05:38.714Z,999.89
2018-06-09T10:06:38.724Z,999.86
2018-06-09T10:07:38.730Z,999.85
2018-06-09T10:08:38.740Z,999.87
2018-06-09T10:09:38.749Z,999.85
2018-06-09T10:10:38.751Z,999.87
2018-06-09T10:11:38.778Z,999.86
2018-06-09T10:12:38.776Z,999.87
2018-06-09T10:13:38.791Z,999.85
2018-06-09T10:14:38.788Z,999.84
2018-06-09T10:15:38.825Z,999.83
2018-06-09T10:16:38.808Z,999.85
2018-06-09T10:17:38.813Z,999.82
2018-06-09T10:18:38.819Z,999.80
2018-06-09T10:19:38.831Z,999.77
2018-06-09T10:20:38.837Z,999.74
2018-06-09T10:21:38.843Z,999.78
2018-06-09T10:22:38.852Z,999.74
2018-06-09T10:23:38.865Z,999.72
2018-06-09T10:24:38.869Z,999.75
2018-06-09T10:25:38.877Z,999.75
2018-06-09T10:26:38.885Z,999.73
2018-06-09T10:27:38.892Z,999.74
2018-06-09T10:28:38.902Z,999.71
2018-06-09T10:29:38.982Z,999.72
2018-06-09T10:30:38.912Z,999.67
2018-06-09T10:31:38.935Z,999.72
2018-06-09T10:32:38.937Z,999.74
2018-06-09T10:33:38.939Z,999.72
2018-06-09T10:34:38.950Z,999.70
2018-06-09T10:35:38.980Z,999.70
2018-06-09T10:36:38.964Z,999.71
2018-06-09T10:37:38.970Z,999.66
2018-06-09T10:38:39.039Z,999.68
2018-06-09T10:39:38.983Z,999.67
2018-06-09T10:40:38.998Z,999.64
2018-06-09T10:41:39.002Z,999.65
2018-06-09T10:42:39.011Z,999.65
2018-06-09T10:43:39.021Z,999.67
2018-06-09T10:44:39.028Z,999.65
2018-06-09T10:45:39.033Z,999.63
2018-06-09T10:46:39.045Z,999.65
2018-06-09T10:47:39.050Z,999.66
2018-06-09T10:48:39.065Z,999.67
2018-06-09T10:49:39.088Z,999.69
2018-06-09T10:50:39.072Z,999.67
2018-06-09T10:51:39.086Z,999.68
2018-06-09T10:52:39.089Z,999.69
2018-06-09T10:53:39.098Z,999.64
2018-06-09T10:54:39.114Z,999.63
2018-06-09T10:55:39.110Z,999.63
2018-06-09T10:56:39.125Z,999.62
2018-06-09T10:57:39.133Z,999.61
2018-06-09T10:58:39.137Z,999.57
2018-06-09T10:59:39.161Z,999.57
2018-06-09T11:00:39.162Z,999.57
2018-06-09T11:01:39.174Z,999.59
2018-06-09T11:02:39.175Z,999.57
2018-06-09T11:03:39.178Z,999.55
2018-06-09T11:04:39.190Z,999.52
2018-06-09T11:05:39.201Z,999.55
2018-06-09T11:06:39.208Z,999.53
2018-06-09T11:07:39.215Z,999.53
2018-06-09T11:08:39.222Z,999.51
2018-06-09T11:09:39.226Z,999.49
2018-06-09T11:10:39.239Z,999.49
2018-06-09T11:11:39.244Z,999.50
2018-06-09T11:12:39.257Z,999.51
2018-06-09T11:13:39.259Z,999.51
2018-06-09T11:14:39.276Z,999.49
2018-06-09T11:15:39.281Z,999.47
2018-06-09T11:16:39.284Z,999.49
2018-06-09T11:17:39.297Z,999.46
2018-06-09T11:18:39.310Z,999.45
2018-06-09T11:19:39.316Z,999.44
2018-06-09T11:20:39.328Z,999.40
2018-06-09T11:21:39.330Z,999.41
2018-06-09T11:22:39.342Z,999.43
2018-06-09T11:23:39.352Z,999.44
2018-06-09T11:24:39.424Z,999.41
2018-06-09T11:25:39.363Z,999.40
2018-06-09T11:26:39.380Z,999.42
2018-06-09T11:27:39.387Z,999.33
2018-06-09T11:28:39.393Z,999.33
2018-06-09T11:29:39.402Z,999.28
2018-06-09T11:30:39.422Z,999.29
2018-06-09T11:31:39.410Z,999.29
2018-06-09T11:32:39.428Z,999.22
2018-06-09T11:33:39.467Z,999.25
2018-06-09T11:34:39.446Z,999.27
2018-06-09T11:35:39.472Z,999.28
2018-06-09T11:36:39.456Z,999.26
2018-06-09T11:37:39.468Z,999.21
2018-06-09T11:38:39.477Z,999.23
2018-06-09T11:39:39.481Z,999.22
2018-06-09T11:40:39.486Z,999.20
2018-06-09T11:41:39.499Z,999.14
2018-06-09T11:42:39.577Z,999.12
2018-06-09T11:43:39.518Z,999.12
2018-06-09T11:44:39.521Z,999.13
2018-06-09T11:45:39.535Z,999.09
2018-06-09T11:46:39.541Z,999.10
2018-06-09T11:47:39.577Z,999.12
2018-06-09T11:48:39.564Z,999.09
2018-06-09T11:49:39.566Z,999.03
2018-06-09T11:50:39.591Z,999.04
2018-06-09T11:51:39.584Z,999.00
2018-06-09T11:52:39.586Z,999.01
2018-06-09T11:53:39.600Z,998.96
2018-06-09T11:54:39.602Z,998.95
2018-06-09T11:55:39.624Z,998.94
2018-06-09T11:56:39.620Z,998.92
2018-06-09T11:57:39.794Z,998.91
2018-06-09T11:58:39.642Z,998.93
2018-06-09T11:59:39.657Z,998.87
2018-06-09T12:00:39.679Z,998.86
2018-06-09T12:01:39.723Z,998.90
2018-06-09T12:02:39.668Z,998.85
2018-06-09T12:03:39.682Z,998.85
2018-06-09T12:04:39.700Z,998.85
2018-06-09T12:05:39.726Z,998.81
2018-06-09T12:06:39.707Z,998.85
2018-06-09T12:07:39.716Z,998.82
2018-06-09T12:08:39.720Z,998.83
2018-06-09T12:09:39.730Z,998.83
2018-06-09T12:10:39.739Z,998.82
2018-06-09T12:11:39.752Z,998.83
2018-06-09T12:12:39.756Z,998.90
2018-06-09T12:13:39.762Z,998.85
2018-06-09T12:14:39.770Z,998.83
2018-06-09T12:15:39.778Z,998.84
2018-06-09T12:16:39.801Z,998.81
2018-06-09T12:17:39.806Z,998.80
2018-06-09T12:18:39.807Z,998.80
2018-06-09T12:19:39.821Z,998.75
2018-06-09T12:20:39.821Z,998.76
2018-06-09T12:21:39.834Z,998.78
2018-06-09T12:22:39.844Z,998.76
2018-06-09T12:23:39.852Z,998.80
2018-06-09T12:24:39.858Z,998.79
2018-06-09T12:25:39.873Z,998.79
2018-06-09T12:26:39.873Z,998.81
2018-06-09T12:27:39.883Z,998.80
2018-06-09T12:28:39.898Z,998.86
2018-06-09T12:29:39.907Z,998.85
2018-06-09T12:30:39.915Z,998.80
2018-06-09T12:31:39.928Z,998.86
2018-06-09T12:32:39.932Z,998.91
2018-06-09T12:33:39.944Z,998.86
2018-06-09T12:34:39.944Z,998.84
2018-06-09T12:35:39.953Z,998.86
2018-06-09T12:36:39.969Z,998.83
2018-06-09T12:37:39.973Z,998.83
2018-06-09T12:38:39.984Z,998.81
2018-06-09T12:39:39.989Z,998.77
2018-06-09T12:40:40.001Z,998.78
2018-06-09T12:41:40.007Z,998.72
2018-06-09T12:42:40.052Z,998.71
2018-06-09T12:43:40.024Z,998.70
2018-06-09T12:44:40.048Z,998.66
2018-06-09T12:45:40.074Z,998.65
2018-06-09T12:46:40.055Z,998.63
2018-06-09T12:47:40.062Z,998.62
2018-06-09T12:48:40.088Z,998.58
2018-06-09T12:49:40.110Z,998.58
2018-06-09T12:50:40.089Z,998.55
2018-06-09T12:51:40.097Z,998.53
2018-06-09T12:52:40.105Z,998.53
2018-06-09T12:53:40.119Z,998.54
2018-06-09T12:54:40.127Z,998.50
2018-06-09T12:55:40.135Z,998.48
2018-06-09T12:56:40.149Z,998.49
2018-06-09T12:57:40.165Z,998.44
2018-06-09T12:58:40.195Z,998.47
2018-06-09T12:59:40.174Z,998.49
2018-06-09T13:00:40.173Z,998.48
2018-06-09T13:01:40.192Z,998.52
2018-06-09T13:02:40.201Z,998.51
2018-06-09T13:03:40.204Z,998.52
2018-06-09T13:04:40.211Z,998.50
2018-06-09T13:05:40.226Z,998.52
2018-06-09T13:06:40.228Z,998.49
2018-06-09T13:07:40.237Z,998.46
2018-06-09T13:08:40.249Z,998.44
2018-06-09T13:09:40.253Z,998.44
2018-06-09T13:10:40.268Z,998.42
2018-06-09T13:11:40.284Z,998.44
2018-06-09T13:12:40.286Z,998.42
2018-06-09T13:13:40.296Z,998.45
2018-06-09T13:14:40.300Z,998.45
2018-06-09T13:15:40.306Z,998.44
2018-06-09T13:16:40.325Z,998.44
2018-06-09T13:17:40.329Z,998.47
2018-06-09T13:18:40.341Z,998.47
2018-06-09T13:19:40.351Z,998.48
2018-06-09T13:20:40.355Z,998.45
2018-06-09T13:21:40.369Z,998.47
2018-06-09T13:22:40.365Z,998.44
2018-06-09T13:23:40.382Z,998.47
2018-06-09T13:24:40.387Z,998.44
2018-06-09T13:25:40.396Z,998.41
2018-06-09T13:26:40.408Z,998.39
2018-06-09T13:27:40.414Z,998.40
2018-06-09T13:28:40.423Z,998.39
2018-06-09T13:29:40.434Z,998.37
2018-06-09T13:30:40.442Z,998.35
2018-06-09T13:31:40.452Z,998.33
2018-06-09T13:32:40.459Z,998.32
2018-06-09T13:33:40.467Z,998.31
2018-06-09T13:34:40.483Z,998.30
2018-06-09T13:35:40.487Z,998.31
2018-06-09T13:36:40.494Z,998.29
2018-06-09T13:37:40.504Z,998.27
2018-06-09T13:38:40.512Z,998.30
2018-06-09T13:39:40.528Z,998.26
2018-06-09T13:40:40.533Z,998.32
2018-06-09T13:41:40.538Z,998.33
2018-06-09T13:42:40.552Z,998.30
2018-06-09T13:43:40.560Z,998.29
2018-06-09T13:44:40.577Z,998.33
2018-06-09T13:45:40.591Z,998.31
2018-06-09T13:46:40.620Z,998.34
2018-06-09T13:47:40.595Z,998.28
2018-06-09T13:48:40.618Z,998.25
2018-06-09T13:49:40.651Z,998.22
2018-06-09T13:50:40.635Z,998.24
2018-06-09T13:51:40.635Z,998.24
2018-06-09T13:52:40.643Z,998.24
2018-06-09T13:53:40.649Z,998.21
2018-06-09T13:54:40.690Z,998.22
2018-06-09T13:55:40.672Z,998.23
2018-06-09T13:56:40.692Z,998.24
2018-06-09T13:57:40.687Z,998.21
2018-06-09T13:58:40.697Z,998.20
2018-06-09T13:59:40.711Z,998.23
2018-06-09T14:00:40.712Z,998.21
2018-06-09T14:01:40.721Z,998.24
2018-06-09T14:02:40.735Z,998.28
2018-06-09T14:03:40.747Z,998.30
2018-06-09T14:04:40.752Z,998.27
2018-06-09T14:05:40.764Z,998.31
2018-06-09T14:06:40.770Z,998.35
2018-06-09T14:07:40.785Z,998.34
2018-06-09T14:08:40.789Z,998.32
2018-06-09T14:09:40.802Z,998.30
2018-06-09T14:10:40.813Z,998.28
2018-06-09T14:11:40.822Z,998.28
2018-06-09T14:12:40.829Z,998.27
2018-06-09T14:13:40.839Z,998.27
2018-06-09T14:14:40.851Z,998.27
2018-06-09T14:15:40.885Z,998.25
2018-06-09T14:16:40.905Z,998.26
2018-06-09T14:17:40.925Z,998.24
2018-06-09T14:18:40.912Z,998.22
2018-06-09T14:19:40.902Z,998.25
2018-06-09T14:20:40.928Z,998.26
2018-06-09T14:21:40.919Z,998.24
2018-06-09T14:22:40.928Z,998.32
2018-06-09T14:23:40.951Z,998.34
2018-06-09T14:24:40.948Z,998.35
2018-06-09T14:25:40.964Z,998.37
2018-06-09T14:26:40.967Z,998.33
2018-06-09T14:27:40.974Z,998.33
2018-06-09T14:28:40.989Z,998.40
2018-06-09T14:29:40.990Z,998.40
2018-06-09T14:30:41.006Z,998.42
2018-06-09T14:31:41.013Z,998.47
2018-06-09T14:32:41.027Z,998.46
2018-06-09T14:33:41.026Z,998.46
2018-06-09T14:34:41.036Z,998.49
2018-06-09T14:35:41.045Z,998.51
2018-06-09T14:36:41.060Z,998.48
2018-06-09T14:37:41.068Z,998.49
2018-06-09T14:38:41.077Z,998.50
2018-06-09T14:39:41.087Z,998.47
2018-06-09T14:40:41.094Z,998.47
2018-06-09T14:41:41.101Z,998.45
2018-06-09T14:42:41.110Z,998.45
2018-06-09T14:43:41.117Z,998.43
2018-06-09T14:44:41.128Z,998.44
2018-06-09T14:45:41.138Z,998.37
2018-06-09T14:46:41.147Z,998.39
2018-06-09T14:47:41.156Z,998.36
2018-06-09T14:48:41.163Z,998.32
2018-06-09T14:49:41.176Z,998.32
2018-06-09T14:50:41.183Z,998.32
2018-06-09T14:51:41.197Z,998.32
2018-06-09T14:52:41.200Z,998.33
2018-06-09T14:53:41.208Z,998.32
2018-06-09T14:54:41.217Z,998.34
2018-06-09T14:55:41.223Z,998.31
2018-06-09T14:56:41.232Z,998.26
2018-06-09T14:57:41.239Z,998.23
2018-06-09T14:58:41.247Z,998.27
2018-06-09T14:59:41.257Z,998.25
2018-06-09T15:00:41.264Z,998.25
2018-06-09T15:01:41.279Z,998.29
2018-06-09T15:02:41.282Z,998.36
2018-06-09T15:03:41.296Z,998.38
2018-06-09T15:04:41.303Z,998.38
2018-06-09T15:05:41.326Z,998.36
2018-06-09T15:06:41.318Z,998.35
2018-06-09T15:07:41.329Z,998.38
2018-06-09T15:08:41.337Z,998.40
2018-06-09T15:09:41.348Z,998.35
2018-06-09T15:10:41.361Z,998.34
2018-06-09T15:11:41.360Z,998.30
2018-06-09T15:12:41.372Z,998.25
2018-06-09T15:13:41.397Z,998.21
2018-06-09T15:14:41.393Z,998.23
2018-06-09T15:15:41.431Z,998.24
2018-06-09T15:16:41.410Z,998.24
2018-06-09T15:17:41.418Z,998.23
2018-06-09T15:18:41.421Z,998.20
2018-06-09T15:19:41.435Z,998.21
2018-06-09T15:20:41.455Z,998.19
2018-06-09T15:21:41.481Z,998.23
2018-06-09T15:22:41.512Z,998.25
2018-06-09T15:23:41.468Z,998.22
2018-06-09T15:24:41.474Z,998.24
2018-06-09T15:25:41.485Z,998.25
2018-06-09T15:26:41.491Z,998.26